createdAt,value
2024-03-13T00:00:10.222Z,61.20
2024-03-13T00:00:42.741Z,52.80
2024-03-13T00:01:15.261Z,53.40
2024-03-13T00:01:47.716Z,48.00
2024-03-13T00:02:20.082Z,49.90
2024-03-13T00:02:52.576Z,54.70
2024-03-13T00:03:25.017Z,53.60
2024-03-13T00:03:57.464Z,44.30
2024-03-13T00:04:29.914Z,52.10
2024-03-13T00:05:02.341Z,55.70
2024-03-13T00:05:34.838Z,60.40
2024-03-13T00:06:07.294Z,60.80
2024-03-13T00:06:39.738Z,56.40
2024-03-13T00:07:12.456Z,60.20
2024-03-13T00:07:44.704Z,57.20
2024-03-13T00:08:17.174Z,54.10
2024-03-13T00:08:49.680Z,51.70
2024-03-13T00:09:22.167Z,50.20
2024-03-13T00:09:54.646Z,54.80
2024-03-13T00:10:27.165Z,50.20
2024-03-13T00:10:59.801Z,48.70
2024-03-13T00:11:32.119Z,50.70
2024-03-13T00:12:04.561Z,49.60
2024-03-13T00:12:37.055Z,57.90
2024-03-13T00:13:09.515Z,70.80
2024-03-13T00:13:41.936Z,64.80
2024-03-13T00:14:14.387Z,55.80
2024-03-13T00:14:46.896Z,51.80
2024-03-13T00:15:19.381Z,48.60
2024-03-13T00:15:51.924Z,46.50
2024-03-13T00:16:24.478Z,52.10
2024-03-13T00:16:56.839Z,52.70
2024-03-13T00:17:29.409Z,53.50
2024-03-13T00:18:01.880Z,51.90
2024-03-13T00:18:34.329Z,59.80
2024-03-13T00:19:06.882Z,58.10
2024-03-13T00:19:39.306Z,55.50
2024-03-13T00:20:11.743Z,52.30
2024-03-13T00:20:44.193Z,53.50
2024-03-13T00:21:16.635Z,60.20
2024-03-13T00:21:49.173Z,65.10
2024-03-13T00:22:21.675Z,64.70
2024-03-13T00:22:54.107Z,55.40
2024-03-13T00:23:26.568Z,47.20
2024-03-13T00:23:59.079Z,59.70
2024-03-13T00:24:31.553Z,71.30
2024-03-13T00:25:04.078Z,58.40
2024-03-13T00:25:36.568Z,57.80
2024-03-13T00:26:08.970Z,59.50
2024-03-13T00:26:41.464Z,56.30
2024-03-13T00:27:13.970Z,52.70
2024-03-13T00:27:46.482Z,54.60
2024-03-13T00:28:19.018Z,57.60
2024-03-13T00:28:51.443Z,62.30
2024-03-13T00:29:23.945Z,65.90
2024-03-13T00:29:56.411Z,57.80
2024-03-13T00:30:28.895Z,58.60
2024-03-13T00:31:01.452Z,60.90
2024-03-13T00:31:33.937Z,59.10
2024-03-13T00:32:06.388Z,52.70
2024-03-13T00:32:38.903Z,56.30
2024-03-13T00:33:11.414Z,53.70
2024-03-13T00:33:43.919Z,52.00
2024-03-13T00:34:16.475Z,49.10
2024-03-13T00:34:48.941Z,55.80
2024-03-13T00:35:21.380Z,54.30
2024-03-13T00:35:53.967Z,51.10
2024-03-13T00:36:26.425Z,53.30
2024-03-13T00:36:58.898Z,54.30
2024-03-13T00:37:31.413Z,58.90
2024-03-13T00:38:03.804Z,54.90
2024-03-13T00:38:36.308Z,54.30
2024-03-13T00:39:08.789Z,53.90
2024-03-13T00:39:41.455Z,44.40
2024-03-13T00:40:13.794Z,56.60
2024-03-13T00:40:46.271Z,61.80
2024-03-13T00:41:18.649Z,58.90
2024-03-13T00:41:51.077Z,55.60
2024-03-13T00:42:23.592Z,55.40
2024-03-13T00:42:56.263Z,59.30
2024-03-13T00:43:28.719Z,49.70
2024-03-13T00:44:01.159Z,56.30
2024-03-13T00:44:33.738Z,58.80
2024-03-13T00:45:06.193Z,51.50
2024-03-13T00:45:38.677Z,49.80
2024-03-13T00:46:11.201Z,46.80
2024-03-13T00:46:44.625Z,49.60
2024-03-13T00:47:17.080Z,57.80
2024-03-13T00:47:49.575Z,57.40
2024-03-13T00:48:22.033Z,50.40
2024-03-13T00:48:54.507Z,50.80
2024-03-13T00:49:27.045Z,53.30
2024-03-13T00:49:59.490Z,57.10
2024-03-13T00:50:31.972Z,54.70
2024-03-13T00:51:04.432Z,54.70
2024-03-13T00:51:36.908Z,53.30
2024-03-13T00:52:09.383Z,62.10
2024-03-13T00:52:41.830Z,62.30
2024-03-13T00:53:14.270Z,58.00
2024-03-13T00:53:46.757Z,60.30
2024-03-13T00:54:19.298Z,64.60
2024-03-13T00:54:51.955Z,64.30
2024-03-13T00:55:24.384Z,56.30
2024-03-13T00:55:56.767Z,56.80
2024-03-13T00:56:29.210Z,58.10
2024-03-13T00:57:01.742Z,63.30
2024-03-13T00:57:34.215Z,59.20
2024-03-13T00:58:06.721Z,54.10
2024-03-13T00:58:39.113Z,54.90
2024-03-13T00:59:11.617Z,52.70
2024-03-13T00:59:44.130Z,45.40
2024-03-13T01:00:16.634Z,56.10
2024-03-13T01:00:49.067Z,56.90
2024-03-13T01:01:21.628Z,58.20
2024-03-13T01:01:53.949Z,58.10
2024-03-13T01:02:26.424Z,53.10
2024-03-13T01:02:58.858Z,56.00
2024-03-13T01:03:31.397Z,51.80
2024-03-13T01:04:03.985Z,44.70
2024-03-13T01:04:36.332Z,47.20
2024-03-13T01:05:08.829Z,51.30
2024-03-13T01:05:41.302Z,59.90
2024-03-13T01:06:13.778Z,59.50
2024-03-13T01:06:46.360Z,48.30
2024-03-13T01:07:18.913Z,49.00
2024-03-13T01:07:51.300Z,48.80
2024-03-13T01:08:23.789Z,51.30
2024-03-13T01:08:56.277Z,52.90
2024-03-13T01:09:28.806Z,56.90
2024-03-13T01:10:01.393Z,57.10
2024-03-13T01:10:33.925Z,59.60
2024-03-13T01:11:06.319Z,56.20
2024-03-13T01:11:38.941Z,42.50
2024-03-13T01:12:11.392Z,50.70
2024-03-13T01:12:43.959Z,54.30
2024-03-13T01:13:16.379Z,51.30
2024-03-13T01:13:48.779Z,56.30
2024-03-13T01:14:21.269Z,51.70
2024-03-13T01:14:53.694Z,51.40
2024-03-13T01:15:26.222Z,56.10
2024-03-13T01:15:58.753Z,53.00
2024-03-13T01:16:31.379Z,51.00
2024-03-13T01:17:04.269Z,56.20
2024-03-13T01:17:36.423Z,62.20
2024-03-13T01:18:09.197Z,58.10
2024-03-13T01:18:41.385Z,54.70
2024-03-13T01:19:14.187Z,46.80
2024-03-13T01:19:46.368Z,53.20
2024-03-13T01:20:18.844Z,59.30
2024-03-13T01:20:51.282Z,49.70
2024-03-13T01:21:23.768Z,43.90
2024-03-13T01:21:56.581Z,48.50
2024-03-13T01:22:28.857Z,50.20
2024-03-13T01:23:01.248Z,51.40
2024-03-13T01:23:33.682Z,51.50
2024-03-13T01:24:06.137Z,51.00
2024-03-13T01:24:38.615Z,60.60
2024-03-13T01:25:11.073Z,61.40
2024-03-13T01:25:43.552Z,54.60
2024-03-13T01:26:16.037Z,52.60
2024-03-13T01:26:48.473Z,48.50
2024-03-13T01:27:20.929Z,49.70
2024-03-13T01:27:53.434Z,53.40
2024-03-13T01:28:25.905Z,59.40
2024-03-13T01:28:58.354Z,59.70
2024-03-13T01:29:30.905Z,52.70
2024-03-13T01:30:03.388Z,60.50
2024-03-13T01:30:35.908Z,60.60
2024-03-13T01:31:08.469Z,54.10
2024-03-13T01:31:40.833Z,47.30
2024-03-13T01:32:13.324Z,50.70
2024-03-13T01:32:45.816Z,57.80
2024-03-13T01:33:18.359Z,54.90
2024-03-13T01:33:50.867Z,54.00
2024-03-13T01:34:23.381Z,51.80
2024-03-13T01:34:55.783Z,43.30
2024-03-13T01:35:28.225Z,54.60
2024-03-13T01:36:00.722Z,57.70
2024-03-13T01:36:33.142Z,49.90
2024-03-13T01:37:05.601Z,50.60
2024-03-13T01:37:38.034Z,50.70
2024-03-13T01:38:10.557Z,48.60
2024-03-13T01:38:43.059Z,48.30
2024-03-13T01:39:15.543Z,52.70
2024-03-13T01:39:48.037Z,52.60
2024-03-13T01:40:20.806Z,47.80
2024-03-13T01:40:52.957Z,48.20
2024-03-13T01:41:25.470Z,53.40
2024-03-13T01:41:57.938Z,60.90
2024-03-13T01:42:30.395Z,53.10
2024-03-13T01:43:03.021Z,44.50
2024-03-13T01:43:35.500Z,47.70
2024-03-13T01:44:10.987Z,54.00
2024-03-13T01:44:40.397Z,62.60
2024-03-13T01:45:12.847Z,59.40
2024-03-13T01:45:45.345Z,50.00
2024-03-13T01:46:17.802Z,55.30
2024-03-13T01:46:50.224Z,54.50
2024-03-13T01:47:22.702Z,43.80
2024-03-13T01:47:55.190Z,50.80
2024-03-13T01:48:27.617Z,50.50
2024-03-13T01:49:00.148Z,50.40
2024-03-13T01:49:32.610Z,53.30
2024-03-13T01:50:05.040Z,41.50
2024-03-13T01:50:37.485Z,52.10
2024-03-13T01:51:09.965Z,56.70
2024-03-13T01:51:42.514Z,42.80
2024-03-13T01:52:15.042Z,44.80
2024-03-13T01:52:47.497Z,55.40
2024-03-13T01:53:19.985Z,55.80
2024-03-13T01:53:52.684Z,55.30
2024-03-13T01:54:25.037Z,61.40
2024-03-13T01:54:57.536Z,52.30
2024-03-13T01:55:30.141Z,55.50
2024-03-13T01:56:02.430Z,53.30
2024-03-13T01:56:35.028Z,56.40
2024-03-13T01:57:07.493Z,59.40
2024-03-13T01:57:39.977Z,54.20
2024-03-13T01:58:12.542Z,54.20
2024-03-13T01:58:44.916Z,51.50
2024-03-13T01:59:17.358Z,53.00
2024-03-13T01:59:49.815Z,49.90
2024-03-13T02:00:22.247Z,50.20
2024-03-13T02:00:54.909Z,50.60
2024-03-13T02:01:27.380Z,47.00
2024-03-13T02:01:59.885Z,45.60
2024-03-13T02:02:32.157Z,58.10
2024-03-13T02:03:04.728Z,59.20
2024-03-13T02:03:37.155Z,50.70
2024-03-13T02:04:09.687Z,56.70
2024-03-13T02:04:42.156Z,52.10
2024-03-13T02:05:14.629Z,46.90
2024-03-13T02:05:47.111Z,48.90
2024-03-13T02:06:19.650Z,41.80
2024-03-13T02:06:52.111Z,49.50
2024-03-13T02:07:24.633Z,50.70
2024-03-13T02:07:57.026Z,46.70
2024-03-13T02:08:29.507Z,48.90
2024-03-13T02:09:02.014Z,49.30
2024-03-13T02:09:34.460Z,41.30
2024-03-13T02:10:07.316Z,46.10
2024-03-13T02:10:39.940Z,45.20
2024-03-13T02:11:12.421Z,44.10
2024-03-13T02:11:44.893Z,50.90
2024-03-13T02:12:17.325Z,52.10
2024-03-13T02:12:49.779Z,46.00
2024-03-13T02:13:22.316Z,39.40
2024-03-13T02:13:54.706Z,41.60
2024-03-13T02:14:27.146Z,49.40
2024-03-13T02:14:59.625Z,55.10
2024-03-13T02:15:32.101Z,49.50
2024-03-13T02:16:04.612Z,46.60
2024-03-13T02:16:37.126Z,45.30
2024-03-13T02:17:09.589Z,42.00
2024-03-13T02:17:42.485Z,45.70
2024-03-13T02:18:14.930Z,48.40
2024-03-13T02:18:47.367Z,41.90
2024-03-13T02:19:19.858Z,43.40
2024-03-13T02:19:52.284Z,40.50
2024-03-13T02:20:25.775Z,39.30
2024-03-13T02:20:58.223Z,47.00
2024-03-13T02:21:30.736Z,47.80
2024-03-13T02:22:03.194Z,46.20
2024-03-13T02:22:35.661Z,45.50
2024-03-13T02:23:08.220Z,48.30
2024-03-13T02:23:40.677Z,50.80
2024-03-13T02:24:13.197Z,45.30
2024-03-13T02:24:45.729Z,44.90
2024-03-13T02:25:18.174Z,45.40
2024-03-13T02:25:50.636Z,39.50
2024-03-13T02:26:23.121Z,42.60
2024-03-13T02:26:55.619Z,39.40
2024-03-13T02:27:28.076Z,39.30
2024-03-13T02:28:00.559Z,41.90
2024-03-13T02:28:32.964Z,41.90
2024-03-13T02:29:05.449Z,44.00
2024-03-13T02:29:37.932Z,46.90
2024-03-13T02:30:10.393Z,46.40
2024-03-13T02:30:42.935Z,40.30
2024-03-13T02:31:15.496Z,40.00
2024-03-13T02:31:47.852Z,44.10
2024-03-13T02:32:20.489Z,45.90
2024-03-13T02:32:53.194Z,51.40
2024-03-13T02:33:25.537Z,47.50
2024-03-13T02:33:58.065Z,50.40
2024-03-13T02:34:30.585Z,45.60
2024-03-13T02:35:03.094Z,39.70
2024-03-13T02:35:35.587Z,48.80
2024-03-13T02:36:08.118Z,49.80
2024-03-13T02:36:40.644Z,46.80
2024-03-13T02:37:13.127Z,46.80
2024-03-13T02:37:45.562Z,45.30
2024-03-13T02:38:18.083Z,45.20
2024-03-13T02:38:50.608Z,40.50
2024-03-13T02:39:23.064Z,42.90
2024-03-13T02:39:55.594Z,43.60
2024-03-13T02:40:28.090Z,52.40
2024-03-13T02:41:00.489Z,55.90
2024-03-13T02:41:33.964Z,47.80
2024-03-13T02:42:06.372Z,49.80
2024-03-13T02:42:38.827Z,48.40
2024-03-13T02:43:11.400Z,44.40
2024-03-13T02:43:43.850Z,42.80
2024-03-13T02:44:16.328Z,39.20
2024-03-13T02:44:48.845Z,39.50
2024-03-13T02:45:21.296Z,38.80
2024-03-13T02:45:53.806Z,41.30
2024-03-13T02:46:26.238Z,40.50
2024-03-13T02:46:58.619Z,41.60
2024-03-13T02:47:31.230Z,44.00
2024-03-13T02:48:03.742Z,40.00
2024-03-13T02:48:36.208Z,41.80
2024-03-13T02:49:08.709Z,42.40
2024-03-13T02:49:41.064Z,44.40
2024-03-13T02:50:13.572Z,44.80
2024-03-13T02:50:46.109Z,43.80
2024-03-13T02:51:18.550Z,42.60
2024-03-13T02:51:51.933Z,39.50
2024-03-13T02:52:24.417Z,44.20
2024-03-13T02:52:56.843Z,39.50
2024-03-13T02:53:29.308Z,40.20
2024-03-13T02:54:01.772Z,46.50
2024-03-13T02:54:34.283Z,44.80
2024-03-13T02:55:06.832Z,43.60
2024-03-13T02:55:39.995Z,46.10
2024-03-13T02:56:12.429Z,40.40
2024-03-13T02:56:44.899Z,35.60
2024-03-13T02:57:17.394Z,39.20
2024-03-13T02:57:49.896Z,37.60
2024-03-13T02:58:22.480Z,36.30
2024-03-13T02:58:54.861Z,46.50
2024-03-13T02:59:27.336Z,44.00
2024-03-13T02:59:59.839Z,43.70
2024-03-13T03:00:32.317Z,47.30
2024-03-13T03:01:04.835Z,43.20
2024-03-13T03:01:37.457Z,45.50
2024-03-13T03:02:09.854Z,43.20
2024-03-13T03:02:42.121Z,35.70
2024-03-13T03:03:14.896Z,34.40
2024-03-13T03:03:47.144Z,39.80
2024-03-13T03:04:19.605Z,44.10
2024-03-13T03:04:52.082Z,41.30
2024-03-13T03:05:24.573Z,40.30
2024-03-13T03:05:57.062Z,35.20
2024-03-13T03:06:29.515Z,35.20
2024-03-13T03:07:02.061Z,42.30
2024-03-13T03:07:34.537Z,46.30
2024-03-13T03:08:07.052Z,48.50
2024-03-13T03:08:39.540Z,41.00
2024-03-13T03:09:12.003Z,31.30
2024-03-13T03:09:44.592Z,36.80
2024-03-13T03:10:17.157Z,38.00
2024-03-13T03:10:49.623Z,32.70
2024-03-13T03:11:22.048Z,35.40
2024-03-13T03:11:54.530Z,40.00
2024-03-13T03:12:27.026Z,45.20
2024-03-13T03:12:59.516Z,40.60
2024-03-13T03:13:32.109Z,35.30
2024-03-13T03:14:04.512Z,35.40
2024-03-13T03:14:37.782Z,37.10
2024-03-13T03:15:10.290Z,42.40
2024-03-13T03:15:42.779Z,46.80
2024-03-13T03:16:15.322Z,47.00
2024-03-13T03:16:47.819Z,44.30
2024-03-13T03:17:20.281Z,43.70
2024-03-13T03:17:53.785Z,41.50
2024-03-13T03:18:25.305Z,31.30
2024-03-13T03:18:57.864Z,29.10
2024-03-13T03:19:30.361Z,38.50
2024-03-13T03:20:02.798Z,40.40
2024-03-13T03:20:35.358Z,34.90
2024-03-13T03:21:27.155Z,33.70
2024-03-13T03:21:59.672Z,31.90
2024-03-13T03:22:32.124Z,36.30
2024-03-13T03:23:04.554Z,40.10
2024-03-13T03:23:37.074Z,39.20
2024-03-13T03:24:09.526Z,33.80
2024-03-13T03:24:41.962Z,32.70
2024-03-13T03:25:14.485Z,35.60
2024-03-13T03:25:46.953Z,37.60
2024-03-13T03:26:19.452Z,38.20
2024-03-13T03:26:51.924Z,40.80
2024-03-13T03:27:24.402Z,41.90
2024-03-13T03:27:56.935Z,38.00
2024-03-13T03:28:29.416Z,34.70
2024-03-13T03:29:01.878Z,37.80
2024-03-13T03:29:34.348Z,38.30
2024-03-13T03:30:06.778Z,36.60
2024-03-13T03:30:39.211Z,37.30
2024-03-13T03:31:11.725Z,41.80
2024-03-13T03:31:44.163Z,38.70
2024-03-13T03:32:16.658Z,36.90
2024-03-13T03:32:49.136Z,38.50
2024-03-13T03:33:21.590Z,36.50
2024-03-13T03:33:54.097Z,40.20
2024-03-13T03:34:26.588Z,41.00
2024-03-13T03:34:59.040Z,40.00
2024-03-13T03:35:31.514Z,31.80
2024-03-13T03:36:04.003Z,28.90
2024-03-13T03:36:36.494Z,35.30
2024-03-13T03:37:09.104Z,42.50
2024-03-13T03:37:41.438Z,40.10
2024-03-13T03:38:13.908Z,37.10
2024-03-13T03:38:46.398Z,37.50
2024-03-13T03:39:18.949Z,37.10
2024-03-13T03:39:51.434Z,37.10
2024-03-13T03:40:23.953Z,39.50
2024-03-13T03:40:56.387Z,43.80
2024-03-13T03:41:28.819Z,38.50
2024-03-13T03:42:01.289Z,33.20
2024-03-13T03:42:33.777Z,42.80
2024-03-13T03:43:06.274Z,40.90
2024-03-13T03:43:38.730Z,30.00
2024-03-13T03:44:11.137Z,36.20
2024-03-13T03:44:43.614Z,35.90
2024-03-13T03:45:16.099Z,35.20
2024-03-13T03:45:48.604Z,38.20
2024-03-13T03:46:21.092Z,36.80
2024-03-13T03:46:53.579Z,35.60
2024-03-13T03:47:26.106Z,30.80
2024-03-13T03:48:04.761Z,30.30
2024-03-13T03:48:30.961Z,34.00
2024-03-13T03:49:03.457Z,36.80
2024-03-13T03:49:35.893Z,35.20
2024-03-13T03:50:08.395Z,35.20
2024-03-13T03:50:40.852Z,35.90
2024-03-13T03:51:13.303Z,36.30
2024-03-13T03:51:45.827Z,33.90
2024-03-13T03:52:18.229Z,33.50
2024-03-13T03:52:50.742Z,35.70
2024-03-13T03:53:23.175Z,41.10
2024-03-13T03:53:55.643Z,40.90
2024-03-13T03:54:28.095Z,30.10
2024-03-13T03:55:00.633Z,26.30
2024-03-13T03:55:33.122Z,29.50
2024-03-13T03:56:05.568Z,37.40
2024-03-13T03:56:38.064Z,37.10
2024-03-13T03:57:10.545Z,35.90
2024-03-13T03:57:43.008Z,36.40
2024-03-13T03:58:15.509Z,32.10
2024-03-13T03:58:47.982Z,33.30
2024-03-13T03:59:20.512Z,35.50
2024-03-13T03:59:53.002Z,34.40
2024-03-13T04:00:25.536Z,33.40
2024-03-13T04:00:58.054Z,33.40
2024-03-13T04:01:30.558Z,34.60
2024-03-13T04:02:03.128Z,33.70
2024-03-13T04:02:35.466Z,31.60
2024-03-13T04:03:07.953Z,33.60
2024-03-13T04:03:40.430Z,31.90
2024-03-13T04:04:12.961Z,31.40
2024-03-13T04:04:45.422Z,30.70
2024-03-13T04:05:17.895Z,30.60
2024-03-13T04:05:50.358Z,31.10
2024-03-13T04:06:22.790Z,28.30
2024-03-13T04:06:55.344Z,34.20
2024-03-13T04:07:27.936Z,33.80
2024-03-13T04:08:00.309Z,35.10
2024-03-13T04:08:32.758Z,37.40
2024-03-13T04:09:05.189Z,32.00
2024-03-13T04:09:37.670Z,28.80
2024-03-13T04:10:10.202Z,33.70
2024-03-13T04:10:42.650Z,32.50
2024-03-13T04:11:15.156Z,35.60
2024-03-13T04:11:47.581Z,37.00
2024-03-13T04:12:20.056Z,31.10
2024-03-13T04:12:52.552Z,35.30
2024-03-13T04:13:25.201Z,35.60
2024-03-13T04:13:57.546Z,33.00
2024-03-13T04:14:30.054Z,29.60
2024-03-13T04:15:02.531Z,29.90
2024-03-13T04:15:35.073Z,35.60
2024-03-13T04:16:07.595Z,30.40
2024-03-13T04:16:40.055Z,28.60
2024-03-13T04:17:12.529Z,32.00
2024-03-13T04:17:44.974Z,29.00
2024-03-13T04:18:17.530Z,28.40
2024-03-13T04:18:50.001Z,28.50
2024-03-13T04:19:41.809Z,29.10
2024-03-13T04:20:14.272Z,24.30
2024-03-13T04:20:46.729Z,28.60
2024-03-13T04:21:19.197Z,25.30
2024-03-13T04:21:51.692Z,26.10
2024-03-13T04:22:24.130Z,27.90
2024-03-13T04:22:56.581Z,28.50
2024-03-13T04:23:29.075Z,31.90
2024-03-13T04:24:01.518Z,34.10
2024-03-13T04:24:33.976Z,34.30
2024-03-13T04:25:06.454Z,30.60
2024-03-13T04:25:38.916Z,29.70
2024-03-13T04:26:11.392Z,31.60
2024-03-13T04:26:43.881Z,26.80
2024-03-13T04:27:16.359Z,23.70
2024-03-13T04:27:49.102Z,25.60
2024-03-13T04:28:21.314Z,31.90
2024-03-13T04:28:53.773Z,33.20
2024-03-13T04:29:31.970Z,35.30
2024-03-13T04:29:58.708Z,33.90
2024-03-13T04:30:31.166Z,28.50
2024-03-13T04:31:03.705Z,29.80
2024-03-13T04:31:36.139Z,32.10
2024-03-13T04:32:08.604Z,29.80
2024-03-13T04:32:41.078Z,31.70
2024-03-13T04:33:13.588Z,28.20
2024-03-13T04:33:46.023Z,29.70
2024-03-13T04:34:18.475Z,32.50
2024-03-13T04:34:50.903Z,32.40
2024-03-13T04:35:23.384Z,31.50
2024-03-13T04:35:55.858Z,34.00
2024-03-13T04:36:28.342Z,30.40
2024-03-13T04:37:00.792Z,30.40
2024-03-13T04:37:33.295Z,26.50
2024-03-13T04:38:05.902Z,26.90
2024-03-13T04:38:38.259Z,28.10
2024-03-13T04:39:10.874Z,32.20
2024-03-13T04:39:43.266Z,31.00
2024-03-13T04:40:15.738Z,30.70
2024-03-13T04:40:48.200Z,29.20
2024-03-13T04:41:20.709Z,28.90
2024-03-13T04:41:53.166Z,30.90
2024-03-13T04:42:25.637Z,29.80
2024-03-13T04:42:58.129Z,33.60
2024-03-13T04:43:30.577Z,34.70
2024-03-13T04:44:03.049Z,32.10
2024-03-13T04:44:35.551Z,32.70
2024-03-13T04:45:08.062Z,31.30
2024-03-13T04:45:40.627Z,25.30
2024-03-13T04:46:13.235Z,27.30
2024-03-13T04:46:45.722Z,34.00
2024-03-13T04:47:18.189Z,31.50
2024-03-13T04:47:50.768Z,25.90
2024-03-13T04:48:23.174Z,25.50
2024-03-13T04:48:55.718Z,26.60
2024-03-13T04:49:28.189Z,33.30
2024-03-13T04:50:00.670Z,35.70
2024-03-13T04:50:33.114Z,28.60
2024-03-13T04:51:05.549Z,27.40
2024-03-13T04:51:38.055Z,31.90
2024-03-13T04:52:10.652Z,32.30
2024-03-13T04:52:43.025Z,26.10
2024-03-13T04:53:15.513Z,27.70
2024-03-13T04:53:48.008Z,27.30
2024-03-13T04:54:20.528Z,29.30
2024-03-13T04:54:53.259Z,29.60
2024-03-13T04:55:25.565Z,28.90
2024-03-13T04:55:58.007Z,27.20
2024-03-13T04:56:30.469Z,30.30
2024-03-13T04:57:02.924Z,27.40
2024-03-13T04:57:35.448Z,27.40
2024-03-13T04:58:07.919Z,32.20
2024-03-13T04:58:40.353Z,28.00
2024-03-13T04:59:12.854Z,28.40
2024-03-13T04:59:45.293Z,28.40
2024-03-13T05:00:17.726Z,28.90
2024-03-13T05:00:50.204Z,28.20
2024-03-13T05:01:22.670Z,25.20
2024-03-13T05:01:55.342Z,23.60
2024-03-13T05:02:27.816Z,25.00
2024-03-13T05:03:00.312Z,28.10
2024-03-13T05:03:32.770Z,24.50
2024-03-13T05:04:05.294Z,24.50
2024-03-13T05:04:37.843Z,28.20
2024-03-13T05:05:10.322Z,24.70
2024-03-13T05:05:42.884Z,22.30
2024-03-13T05:06:15.374Z,28.10
2024-03-13T05:06:47.836Z,28.60
2024-03-13T05:07:20.289Z,22.00
2024-03-13T05:07:55.163Z,22.40
2024-03-13T05:08:25.217Z,25.40
2024-03-13T05:08:57.690Z,27.50
2024-03-13T05:09:30.142Z,30.00
2024-03-13T05:10:02.695Z,24.40
2024-03-13T05:10:35.216Z,22.60
2024-03-13T05:11:07.670Z,27.60
2024-03-13T05:11:40.149Z,28.40
2024-03-13T05:12:12.639Z,27.70
2024-03-13T05:12:45.197Z,27.60
2024-03-13T05:13:17.641Z,25.20
2024-03-13T05:13:50.067Z,23.00
2024-03-13T05:14:22.520Z,30.10
2024-03-13T05:14:54.994Z,27.00
2024-03-13T05:15:27.496Z,28.50
2024-03-13T05:15:59.949Z,25.10
2024-03-13T05:16:32.420Z,23.90
2024-03-13T05:17:05.045Z,22.50
2024-03-13T05:17:37.649Z,21.70
2024-03-13T05:18:10.098Z,26.30
2024-03-13T05:18:42.571Z,27.20
2024-03-13T05:19:15.072Z,24.30
2024-03-13T05:19:47.462Z,28.40
2024-03-13T05:20:19.934Z,30.60
2024-03-13T05:20:52.401Z,27.00
2024-03-13T05:21:24.871Z,25.90
2024-03-13T05:21:57.358Z,21.40
2024-03-13T05:22:29.856Z,20.80
2024-03-13T05:23:02.410Z,22.60
2024-03-13T05:23:34.849Z,22.90
2024-03-13T05:24:07.314Z,21.00
2024-03-13T05:24:39.784Z,20.30
2024-03-13T05:25:12.357Z,25.50
2024-03-13T05:25:44.711Z,30.80
2024-03-13T05:26:17.154Z,28.40
2024-03-13T05:26:49.621Z,26.50
2024-03-13T05:27:22.054Z,24.10
2024-03-13T05:27:54.635Z,22.70
2024-03-13T05:28:26.984Z,27.30
2024-03-13T05:28:59.412Z,22.90
2024-03-13T05:29:31.931Z,18.40
2024-03-13T05:30:04.404Z,22.40
2024-03-13T05:30:36.865Z,23.70
2024-03-13T05:31:09.389Z,19.00
2024-03-13T05:31:41.829Z,21.10
2024-03-13T05:32:14.312Z,21.90
2024-03-13T05:32:46.857Z,21.50
2024-03-13T05:33:19.280Z,20.70
2024-03-13T05:33:51.779Z,25.10
2024-03-13T05:34:24.328Z,25.50
2024-03-13T05:34:56.802Z,23.20
2024-03-13T05:35:29.273Z,26.70
2024-03-13T05:36:01.746Z,24.70
2024-03-13T05:36:34.305Z,27.40
2024-03-13T05:37:06.861Z,24.70
2024-03-13T05:37:39.343Z,22.80
2024-03-13T05:38:11.724Z,25.00
2024-03-13T05:38:44.345Z,26.00
2024-03-13T05:39:16.930Z,25.50
2024-03-13T05:39:49.417Z,19.30
2024-03-13T05:40:21.982Z,22.50
2024-03-13T05:40:54.412Z,24.80
2024-03-13T05:41:26.920Z,24.00
2024-03-13T05:41:59.455Z,24.30
2024-03-13T05:42:32.003Z,23.30
2024-03-13T05:43:04.513Z,24.00
2024-03-13T05:43:36.978Z,25.20
2024-03-13T05:44:09.393Z,21.90
2024-03-13T05:44:41.844Z,22.20
2024-03-13T05:45:14.399Z,23.80
2024-03-13T05:45:46.973Z,26.90
2024-03-13T05:46:19.467Z,29.80
2024-03-13T05:46:51.891Z,26.80
2024-03-13T05:47:24.361Z,27.80
2024-03-13T05:47:56.842Z,26.20
2024-03-13T05:48:29.257Z,20.20
2024-03-13T05:49:01.873Z,20.30
2024-03-13T05:49:34.341Z,22.70
2024-03-13T05:50:06.768Z,25.10
2024-03-13T05:50:39.219Z,29.50
2024-03-13T05:51:11.678Z,25.90
2024-03-13T05:51:44.236Z,19.80
2024-03-13T05:52:16.751Z,23.30
2024-03-13T05:52:49.176Z,22.60
2024-03-13T05:53:21.643Z,24.10
2024-03-13T05:53:54.156Z,21.70
2024-03-13T05:54:26.657Z,16.20
2024-03-13T05:54:59.188Z,19.60
2024-03-13T05:55:31.695Z,22.10
2024-03-13T05:56:04.121Z,20.20
2024-03-13T05:56:36.610Z,22.30
2024-03-13T05:57:09.082Z,23.90
2024-03-13T05:57:41.560Z,18.60
2024-03-13T05:58:14.076Z,18.30
2024-03-13T05:58:46.554Z,20.10
2024-03-13T05:59:19.064Z,19.10
2024-03-13T05:59:51.535Z,18.80
2024-03-13T06:00:24.035Z,22.60
2024-03-13T06:00:56.577Z,23.40
2024-03-13T06:01:29.098Z,21.40
2024-03-13T06:02:01.621Z,17.90
2024-03-13T06:02:33.932Z,19.50
2024-03-13T06:03:06.478Z,17.00
2024-03-13T06:03:38.951Z,19.10
2024-03-13T06:04:11.434Z,20.70
2024-03-13T06:04:43.912Z,24.80
2024-03-13T06:05:16.484Z,29.30
2024-03-13T06:05:48.946Z,23.70
2024-03-13T06:06:21.463Z,23.20
2024-03-13T06:06:54.018Z,23.30
2024-03-13T06:07:26.523Z,19.40
2024-03-13T06:07:58.976Z,18.40
2024-03-13T06:08:31.457Z,18.30
2024-03-13T06:09:03.930Z,17.90
2024-03-13T06:09:36.372Z,22.20
2024-03-13T06:10:08.882Z,21.60
2024-03-13T06:10:41.674Z,20.00
2024-03-13T06:11:14.023Z,20.40
2024-03-13T06:11:46.462Z,19.90
2024-03-13T06:12:18.904Z,21.30
2024-03-13T06:12:51.405Z,20.20
2024-03-13T06:13:23.871Z,20.70
2024-03-13T06:13:56.332Z,19.60
2024-03-13T06:14:28.829Z,18.00
2024-03-13T06:15:01.310Z,23.40
2024-03-13T06:15:33.807Z,23.60
2024-03-13T06:16:06.298Z,18.60
2024-03-13T06:16:38.730Z,20.60
2024-03-13T06:17:11.210Z,19.70
2024-03-13T06:17:43.750Z,19.50
2024-03-13T06:18:16.259Z,20.80
2024-03-13T06:18:48.722Z,24.90
2024-03-13T06:19:21.249Z,24.10
2024-03-13T06:19:53.671Z,23.30
2024-03-13T06:20:26.151Z,24.60
2024-03-13T06:20:58.603Z,21.40
2024-03-13T06:21:31.090Z,18.80
2024-03-13T06:22:03.588Z,16.50
2024-03-13T06:22:36.067Z,17.40
2024-03-13T06:23:08.552Z,15.20
2024-03-13T06:23:41.045Z,18.10
2024-03-13T06:24:13.519Z,20.30
2024-03-13T06:24:46.126Z,22.10
2024-03-13T06:25:18.621Z,19.20
2024-03-13T06:25:51.084Z,20.00
2024-03-13T06:26:23.561Z,21.50
2024-03-13T06:26:56.026Z,20.00
2024-03-13T06:27:28.521Z,21.40
2024-03-13T06:28:01.030Z,20.70
2024-03-13T06:28:33.576Z,22.50
2024-03-13T06:29:06.039Z,20.00
2024-03-13T06:29:38.488Z,23.20
2024-03-13T06:30:11.031Z,17.60
2024-03-13T06:30:43.514Z,16.50
2024-03-13T06:31:16.023Z,20.00
2024-03-13T06:31:48.540Z,18.40
2024-03-13T06:32:21.078Z,18.70
2024-03-13T06:32:53.698Z,19.90
2024-03-13T06:33:26.125Z,17.50
2024-03-13T06:33:58.638Z,16.60
2024-03-13T06:34:32.543Z,19.70
2024-03-13T06:35:03.690Z,24.90
2024-03-13T06:35:36.182Z,24.20
2024-03-13T06:36:08.633Z,22.00
2024-03-13T06:36:41.138Z,19.80
2024-03-13T06:37:13.689Z,21.00
2024-03-13T06:37:46.136Z,25.10
2024-03-13T06:38:18.698Z,18.60
2024-03-13T06:38:51.229Z,18.60
2024-03-13T06:39:23.774Z,22.70
2024-03-13T06:39:56.185Z,19.80
2024-03-13T06:40:28.629Z,18.90
2024-03-13T06:41:01.106Z,24.10
2024-03-13T06:41:33.570Z,19.60
2024-03-13T06:42:06.111Z,13.90
2024-03-13T06:42:38.523Z,16.90
2024-03-13T06:43:11.008Z,21.80
2024-03-13T06:43:43.504Z,19.90
2024-03-13T06:44:15.950Z,17.80
2024-03-13T06:44:50.121Z,22.70
2024-03-13T06:45:24.727Z,22.40
2024-03-13T06:45:53.459Z,15.60
2024-03-13T06:46:25.941Z,17.20
2024-03-13T06:46:58.373Z,21.00
2024-03-13T06:47:30.969Z,18.90
2024-03-13T06:48:03.387Z,17.50
2024-03-13T06:48:35.799Z,19.50
2024-03-13T06:49:08.343Z,22.40
2024-03-13T06:49:40.770Z,21.00
2024-03-13T06:50:13.249Z,17.40
2024-03-13T06:50:45.754Z,20.10
2024-03-13T06:51:18.213Z,24.50
2024-03-13T06:51:50.725Z,19.80
2024-03-13T06:52:23.237Z,18.20
2024-03-13T06:52:55.650Z,18.10
2024-03-13T06:53:28.145Z,14.10
2024-03-13T06:54:00.607Z,13.80
2024-03-13T06:54:33.071Z,16.40
2024-03-13T06:55:05.670Z,18.20
2024-03-13T06:55:38.116Z,17.80
2024-03-13T06:56:10.535Z,15.40
2024-03-13T06:56:43.030Z,16.20
2024-03-13T06:57:15.530Z,18.60
2024-03-13T06:57:48.015Z,24.10
2024-03-13T06:58:20.496Z,23.10
2024-03-13T06:58:52.968Z,17.40